Time;durP1;ratioP1;P1;durP2;ratioP2;P2;SDS_P1;SDS_P2;PMS_P1;PMS_P2;Temp;Humidity;BMP_temperature;BMP_pressure;BME280_temperature;BME280_humidity;BME280_pressure;Samples;Min_cycle;Max_cycle;Signal;HPM_P1;HPM_P2
2021/04/12 00:03:04;;;;;;;1.33;0.40;;;5.30;99.90;;;;;;6256189;28;20240;-67
2021/04/12 00:06:11;;;;;;;0.23;0.23;;;5.20;99.90;;;;;;6231823;28;20233;-67
2021/04/12 00:09:24;;;;;;;0.70;0.43;;;5.10;99.90;;;;;;6215641;28;20206;-67
2021/04/12 00:12:44;;;;;;;0.37;0.30;;;5.10;99.90;;;;;;6232684;28;20630;-67
2021/04/12 00:16:07;;;;;;;0.80;0.30;;;5.00;99.90;;;;;;6209551;28;20237;-67
2021/04/12 00:19:32;;;;;;;0.30;0.30;;;5.00;99.90;;;;;;6208303;28;20233;-67
2021/04/12 00:22:46;;;;;;;0.43;0.30;;;4.90;99.90;;;;;;6207777;28;20226;-67
2021/04/12 00:26:06;;;;;;;0.90;0.40;;;4.90;99.90;;;;;;6220547;28;20313;-67
2021/04/12 00:29:18;;;;;;;0.30;0.30;;;4.80;99.90;;;;;;6232353;28;20385;-67
2021/04/12 00:32:40;;;;;;;0.70;0.33;;;4.80;99.90;;;;;;6233483;28;20271;-67
2021/04/12 00:35:53;;;;;;;1.23;0.50;;;4.80;99.90;;;;;;6231650;28;20233;-67
2021/04/12 00:39:05;;;;;;;0.40;0.40;;;4.80;99.90;;;;;;6231493;28;20327;-67
2021/04/12 00:42:23;;;;;;;2.10;0.50;;;4.70;99.90;;;;;;6231253;28;20276;-67
2021/04/12 00:45:31;;;;;;;0.97;0.30;;;4.60;99.90;;;;;;6230308;28;20578;-67
2021/04/12 00:48:55;;;;;;;8.33;0.90;;;4.60;99.90;;;;;;6231922;28;20353;-67
2021/04/12 00:52:19;;;;;;;6.47;1.07;;;4.60;99.90;;;;;;6232249;28;20225;-67
2021/04/12 00:55:36;;;;;;;0.90;0.37;;;4.60;99.90;;;;;;6213820;28;20234;-67
2021/04/12 00:58:52;;;;;;;0.70;0.53;;;4.60;99.90;;;;;;6244521;28;20254;-67
2021/04/12 01:02:12;;;;;;;1.00;0.50;;;4.60;99.90;;;;;;6255702;28;20227;-67
2021/04/12 01:05:17;;;;;;;1.30;0.40;;;4.60;99.90;;;;;;6255041;28;20783;-67
2021/04/12 01:08:56;;;;;;;0.40;0.40;;;4.60;99.90;;;;;;6254333;28;20239;-67
2021/04/12 01:12:07;;;;;;;0.47;0.40;;;4.60;99.90;;;;;;6244909;28;20782;-67
2021/04/12 01:15:30;;;;;;;0.40;0.40;;;4.60;99.90;;;;;;6255797;28;20265;-67
2021/04/12 01:18:56;;;;;;;0.40;0.40;;;4.50;99.90;;;;;;6256233;28;20693;-67
2021/04/12 01:22:19;;;;;;;0.40;0.40;;;4.50;99.90;;;;;;6254316;28;20319;-67
2021/04/12 01:26:02;;;;;;;0.40;0.40;;;4.50;99.90;;;;;;6255875;28;21559;-67
2021/04/12 01:29:29;;;;;;;0.63;0.63;;;4.40;99.90;;;;;;6222017;28;20240;-67
2021/04/12 01:33:07;;;;;;;1.00;0.50;;;4.50;99.90;;;;;;6229640;28;20236;-67
2021/04/12 01:36:24;;;;;;;0.40;0.33;;;4.50;99.90;;;;;;6231328;28;20235;-67
2021/04/12 01:39:38;;;;;;;0.47;0.47;;;4.40;99.90;;;;;;6230684;28;20229;-67
2021/04/12 01:42:53;;;;;;;0.53;0.47;;;4.40;99.90;;;;;;6230882;28;20229;-68
2021/04/12 01:46:41;;;;;;;0.50;0.40;;;4.40;99.90;;;;;;6237370;28;20228;-67
2021/04/12 01:50:10;;;;;;;0.30;0.30;;;4.30;99.90;;;;;;6239944;28;20251;-67
2021/04/12 01:53:30;;;;;;;0.30;0.30;;;4.40;99.90;;;;;;6224300;28;20704;-67
2021/04/12 01:56:41;;;;;;;0.40;0.33;;;4.40;99.90;;;;;;6220528;28;20267;-67
2021/04/12 02:00:11;;;;;;;0.50;0.40;;;4.50;99.90;;;;;;6213704;28;20289;-67
2021/04/12 02:03:36;;;;;;;1.13;1.03;;;4.50;99.90;;;;;;6239328;28;20219;-67
2021/04/12 02:06:43;;;;;;;0.60;0.50;;;4.40;99.90;;;;;;6237800;28;20326;-67
2021/04/12 02:10:17;;;;;;;0.63;0.50;;;4.30;99.90;;;;;;6237351;28;20238;-67
2021/04/12 02:13:28;;;;;;;0.57;0.57;;;4.30;99.90;;;;;;6224782;28;20236;-67
2021/04/12 02:17:00;;;;;;;0.60;0.30;;;4.30;99.90;;;;;;6238951;28;20252;-67
2021/04/12 02:20:26;;;;;;;0.30;0.30;;;4.20;99.90;;;;;;6236862;28;20223;-67
2021/04/12 02:23:48;;;;;;;0.67;0.30;;;4.20;99.90;;;;;;6239529;28;20602;-67
2021/04/12 02:26:52;;;;;;;0.50;0.50;;;4.10;99.90;;;;;;6259889;28;20714;-67
2021/04/12 02:30:21;;;;;;;0.40;0.40;;;4.10;99.90;;;;;;6263510;28;20284;-67
2021/04/12 02:33:44;;;;;;;0.30;0.20;;;4.10;99.90;;;;;;6263322;28;20222;-67
2021/04/12 02:37:08;;;;;;;0.70;0.30;;;4.10;99.90;;;;;;6263673;28;20250;-67
2021/04/12 02:40:47;;;;;;;0.30;0.30;;;4.00;99.90;;;;;;6236428;28;20236;-67
2021/04/12 02:44:11;;;;;;;0.30;0.30;;;4.10;99.90;;;;;;6237112;28;20278;-67
2021/04/12 02:47:37;;;;;;;0.33;0.20;;;4.10;99.90;;;;;;6237531;28;20238;-67
2021/04/12 02:50:55;;;;;;;0.40;0.40;;;4.00;99.90;;;;;;6241080;28;20322;-67
2021/04/12 02:54:24;;;;;;;0.97;0.40;;;3.90;99.90;;;;;;6238143;28;20256;-67
2021/04/12 02:58:04;;;;;;;1.20;0.37;;;3.90;99.90;;;;;;6234275;28;20307;-67
2021/04/12 03:01:36;;;;;;;0.80;0.40;;;3.90;99.90;;;;;;6232880;28;20717;-67
2021/04/12 03:04:46;;;;;;;0.20;0.20;;;3.90;99.90;;;;;;6234670;28;20701;-67
2021/04/12 03:07:51;;;;;;;0.97;0.40;;;3.90;99.90;;;;;;6233478;28;20748;-67
2021/04/12 03:11:16;;;;;;;0.30;0.30;;;3.90;99.90;;;;;;6234988;28;20327;-67
2021/04/12 03:14:36;;;;;;;0.67;0.30;;;3.90;99.90;;;;;;6233012;28;20732;-67
2021/04/12 03:17:59;;;;;;;0.20;0.20;;;3.90;99.90;;;;;;6217430;28;20241;-67
2021/04/12 03:21:28;;;;;;;0.57;0.40;;;3.90;99.90;;;;;;6210395;28;20678;-67
2021/04/12 03:24:40;;;;;;;0.20;0.20;;;3.90;99.90;;;;;;6212090;28;20224;-67
2021/04/12 03:28:19;;;;;;;0.43;0.30;;;3.80;99.90;;;;;;6234440;28;20340;-67
2021/04/12 03:31:30;;;;;;;0.20;0.20;;;3.80;99.90;;;;;;6232364;28;20243;-67
2021/04/12 03:34:50;;;;;;;2.43;0.70;;;3.70;99.90;;;;;;6234793;28;20724;-67
2021/04/12 03:37:55;;;;;;;0.70;0.30;;;3.70;99.90;;;;;;6233820;28;20601;-67
2021/04/12 03:41:13;;;;;;;0.50;0.20;;;3.60;99.90;;;;;;6238882;28;20231;-67
2021/04/12 03:44:43;;;;;;;0.30;0.30;;;3.60;99.90;;;;;;6233716;28;20386;-67
2021/04/12 03:48:05;;;;;;;0.20;0.20;;;3.50;99.90;;;;;;6233263;28;20597;-67
2021/04/12 03:51:46;;;;;;;0.20;0.20;;;3.50;99.90;;;;;;6233949;28;20236;-67
2021/04/12 03:54:48;;;;;;;0.50;0.30;;;3.60;99.90;;;;;;6228973;28;20233;-67
2021/04/12 03:58:23;;;;;;;0.30;0.30;;;3.50;99.90;;;;;;6209194;28;20237;-67
2021/04/12 04:01:56;;;;;;;1.50;0.37;;;3.50;99.90;;;;;;6211763;28;20240;-67
2021/04/12 04:05:16;;;;;;;0.30;0.30;;;3.50;99.90;;;;;;6231511;28;20223;-67
2021/04/12 04:08:38;;;;;;;0.20;0.20;;;3.40;99.90;;;;;;6233990;28;20224;-67
2021/04/12 04:11:54;;;;;;;1.17;0.40;;;3.40;99.90;;;;;;6233138;28;20390;-67
2021/04/12 04:15:08;;;;;;;0.20;0.20;;;3.50;99.90;;;;;;6234089;28;20235;-67
2021/04/12 04:18:35;;;;;;;0.73;0.23;;;3.50;99.90;;;;;;6233438;28;20343;-67
2021/04/12 04:22:03;;;;;;;0.30;0.30;;;3.40;99.90;;;;;;6230855;28;20231;-67
2021/04/12 04:25:23;;;;;;;0.30;0.30;;;3.40;99.90;;;;;;6234778;28;20352;-67
2021/04/12 04:28:47;;;;;;;0.67;0.30;;;3.40;99.90;;;;;;6208538;28;20391;-67
2021/04/12 04:32:25;;;;;;;0.43;0.33;;;3.40;99.90;;;;;;6208086;28;20640;-67
2021/04/12 04:35:56;;;;;;;1.73;0.30;;;3.30;99.90;;;;;;6232751;28;20274;-67
2021/04/12 04:39:08;;;;;;;1.70;0.50;;;3.30;99.90;;;;;;6227204;28;20381;-67
2021/04/12 04:42:24;;;;;;;0.47;0.30;;;3.30;99.90;;;;;;6231426;28;20228;-67
2021/04/12 04:45:50;;;;;;;0.43;0.40;;;3.30;99.90;;;;;;6233573;28;21805;-67
2021/04/12 04:49:03;;;;;;;0.37;0.37;;;3.40;99.90;;;;;;6232492;28;20244;-67
2021/04/12 04:52:29;;;;;;;0.77;0.30;;;3.50;99.90;;;;;;6232087;28;20234;-67
2021/04/12 04:55:49;;;;;;;0.20;0.20;;;3.60;99.90;;;;;;6230634;28;20236;-67
2021/04/12 05:04:01;;;;;;;1.23;0.30;;;3.80;99.90;;;;;;6214358;28;20212;-67
2021/04/12 05:07:31;;;;;;;0.77;0.50;;;3.80;99.90;;;;;;6206163;28;20320;-67
2021/04/12 05:11:18;;;;;;;0.40;0.40;;;3.90;99.90;;;;;;6205880;28;20228;-67
2021/04/12 05:14:39;;;;;;;0.87;0.40;;;3.90;99.90;;;;;;6206696;28;20837;-67
2021/04/12 05:18:22;;;;;;;2.30;0.40;;;4.00;99.90;;;;;;6211405;28;20229;-67
2021/04/12 05:21:55;;;;;;;1.60;0.40;;;4.10;99.90;;;;;;6230223;28;20258;-67
2021/04/12 05:25:24;;;;;;;0.70;0.40;;;4.10;99.90;;;;;;6236339;28;20234;-67
2021/04/12 05:29:01;;;;;;;0.20;0.20;;;4.10;99.90;;;;;;6256612;28;20235;-67
2021/04/12 05:32:42;;;;;;;1.53;0.40;;;4.20;99.90;;;;;;6254944;28;20768;-67
2021/04/12 05:35:43;;;;;;;0.77;0.40;;;4.20;99.90;;;;;;6246700;28;20227;-67
2021/04/12 05:39:22;;;;;;;0.33;0.33;;;4.30;99.90;;;;;;6253680;28;21050;-67
2021/04/12 05:42:56;;;;;;;1.60;0.40;;;4.40;99.90;;;;;;6255477;28;20235;-67
2021/04/12 05:46:26;;;;;;;0.57;0.40;;;4.40;99.90;;;;;;6246015;28;20254;-67
2021/04/12 05:49:47;;;;;;;4.00;0.40;;;4.50;99.90;;;;;;6254213;28;20228;-67
2021/04/12 05:53:03;;;;;;;1.03;0.80;;;4.60;99.90;;;;;;6255596;28;20333;-67
2021/04/12 05:56:18;;;;;;;1.27;0.70;;;4.70;99.90;;;;;;6238705;28;20301;-67
2021/04/12 05:59:41;;;;;;;1.57;0.77;;;4.80;99.90;;;;;;6255044;28;20320;-67
2021/04/12 06:03:01;;;;;;;0.80;0.80;;;5.00;99.90;;;;;;6253693;28;20714;-67
2021/04/12 06:06:15;;;;;;;1.97;1.23;;;5.20;99.90;;;;;;6255371;28;20573;-67
2021/04/12 06:09:49;;;;;;;2.37;0.90;;;5.50;99.90;;;;;;6253719;28;20189;-67
2021/04/12 06:13:23;;;;;;;1.90;0.97;;;5.80;99.90;;;;;;6256218;28;20363;-67
2021/04/12 06:17:18;;;;;;;3.50;1.03;;;5.90;99.90;;;;;;6254225;28;20238;-67
2021/04/12 06:20:32;;;;;;;1.73;1.10;;;6.20;99.90;;;;;;6239453;28;20694;-67
2021/04/12 06:23:56;;;;;;;1.17;1.07;;;6.40;99.90;;;;;;6252162;28;20337;-67
2021/04/12 06:27:31;;;;;;;1.20;1.10;;;6.70;99.90;;;;;;6253909;28;20720;-67
2021/04/12 06:31:00;;;;;;;2.50;1.10;;;6.90;99.90;;;;;;6255003;28;20230;-67
2021/04/12 06:34:32;;;;;;;1.83;1.00;;;7.20;99.90;;;;;;6259850;28;20260;-67
2021/04/12 06:37:40;;;;;;;1.40;1.20;;;7.50;99.90;;;;;;6258360;28;20235;-67
2021/04/12 06:41:12;;;;;;;1.43;1.10;;;7.70;99.90;;;;;;6259272;28;20227;-67
2021/04/12 06:44:41;;;;;;;2.33;1.50;;;8.00;99.90;;;;;;6259855;28;20227;-67
2021/04/12 06:48:20;;;;;;;1.80;1.67;;;8.40;99.90;;;;;;6257805;28;20316;-67
2021/04/12 06:51:40;;;;;;;1.67;1.37;;;8.80;99.90;;;;;;6259095;28;20227;-67
2021/04/12 06:55:19;;;;;;;4.03;2.00;;;9.10;99.90;;;;;;6259741;28;20259;-67
2021/04/12 06:59:05;;;;;;;2.30;2.10;;;9.60;99.90;;;;;;6259716;28;20231;-67
2021/04/12 07:02:30;;;;;;;3.87;2.50;;;10.20;99.90;;;;;;6259920;28;20826;-67
2021/04/12 07:05:32;;;;;;;3.03;2.73;;;10.80;99.90;;;;;;6258285;28;20278;-67
2021/04/12 07:08:36;;;;;;;3.03;2.53;;;11.30;99.90;;;;;;6258708;28;20327;-67
2021/04/12 07:12:09;;;;;;;2.87;2.43;;;11.70;99.90;;;;;;6259834;28;20234;-67
2021/04/12 07:15:35;;;;;;;4.03;2.00;;;12.10;99.90;;;;;;6234292;28;20235;-67
2021/04/12 07:19:04;;;;;;;4.83;2.63;;;12.30;99.90;;;;;;6235410;28;20223;-67
2021/04/12 07:22:52;;;;;;;2.57;2.33;;;12.40;99.90;;;;;;6234135;28;20366;-67
2021/04/12 07:26:18;;;;;;;3.23;2.13;;;12.60;99.90;;;;;;6237075;28;20235;-67
2021/04/12 07:29:58;;;;;;;2.50;2.30;;;12.80;99.90;;;;;;6233746;28;20239;-67
2021/04/12 07:33:28;;;;;;;2.40;2.20;;;12.90;99.90;;;;;;6234343;28;20238;-67
2021/04/12 07:37:07;;;;;;;2.00;1.80;;;12.90;99.90;;;;;;6234321;28;20220;-67
2021/04/12 07:40:24;;;;;;;2.43;2.20;;;13.20;99.90;;;;;;6232661;28;20698;-67
2021/04/12 07:43:47;;;;;;;3.03;2.10;;;13.70;99.90;;;;;;6232451;28;20717;-67
2021/04/12 07:47:46;;;;;;;2.03;1.83;;;14.30;99.90;;;;;;6215552;28;20229;-67
2021/04/12 07:51:35;;;;;;;1.60;1.50;;;14.90;99.90;;;;;;6253606;28;20235;-67
2021/04/12 07:54:46;;;;;;;1.67;1.40;;;15.50;98.50;;;;;;6234025;28;20239;-67
2021/04/12 07:58:03;;;;;;;2.17;1.63;;;15.80;98.30;;;;;;6256158;28;20273;-67
2021/04/12 08:01:42;;;;;;;4.47;1.57;;;15.90;96.60;;;;;;6257968;28;20259;-67
2021/04/12 08:05:30;;;;;;;3.60;1.93;;;15.90;94.80;;;;;;6239726;28;20226;-67
2021/04/12 08:08:53;;;;;;;2.40;2.20;;;15.70;94.80;;;;;;6257869;28;20323;-67
2021/04/12 08:12:30;;;;;;;2.43;2.03;;;15.80;94.30;;;;;;6258475;28;20231;-67
2021/04/12 08:15:51;;;;;;;2.77;2.27;;;16.10;93.30;;;;;;6257367;28;20760;-67
2021/04/12 08:19:12;;;;;;;2.03;1.80;;;16.60;93.20;;;;;;6240105;28;20589;-67
2021/04/12 08:22:51;;;;;;;2.33;2.10;;;17.20;90.10;;;;;;6257972;28;20369;-67
2021/04/12 08:26:40;;;;;;;2.70;1.43;;;17.80;85.30;;;;;;6256225;28;20719;-67
2021/04/12 08:30:12;;;;;;;2.97;2.20;;;18.20;85.80;;;;;;6254735;28;20316;-67
2021/04/12 08:33:52;;;;;;;2.27;2.00;;;18.60;83.90;;;;;;6232592;28;20216;-67
2021/04/12 08:37:21;;;;;;;2.90;2.70;;;18.80;79.90;;;;;;6232198;28;20274;-67
2021/04/12 08:40:42;;;;;;;2.50;2.30;;;18.70;76.70;;;;;;6214701;28;20236;-67
2021/04/12 08:44:02;;;;;;;4.17;3.20;;;18.70;78.50;;;;;;6231736;28;20288;-67
2021/04/12 08:47:41;;;;;;;3.37;2.73;;;18.70;77.40;;;;;;6232501;28;20383;-67
2021/04/12 08:51:03;;;;;;;3.73;3.30;;;18.50;79.50;;;;;;6236933;28;20346;-67
2021/04/12 08:54:42;;;;;;;4.13;3.60;;;18.40;78.40;;;;;;6228715;28;20369;-67
2021/04/12 08:58:03;;;;;;;5.70;3.40;;;18.20;79.50;;;;;;6207659;28;20224;-67
2021/04/12 09:01:20;;;;;;;4.03;3.73;;;18.20;79.70;;;;;;6190595;28;20238;-67
2021/04/12 09:05:00;;;;;;;4.23;3.20;;;18.60;80.60;;;;;;6206247;28;20235;-67
2021/04/12 09:08:14;;;;;;;4.50;4.00;;;19.10;74.90;;;;;;6206588;28;20751;-67
2021/04/12 09:11:33;;;;;;;4.10;2.87;;;19.30;74.20;;;;;;6205539;28;20784;-67
2021/04/12 09:15:07;;;;;;;5.50;3.73;;;19.40;74.10;;;;;;6207995;28;20237;-67
2021/04/12 09:18:33;;;;;;;3.37;3.07;;;19.50;71.60;;;;;;6230498;28;20243;-67
2021/04/12 09:21:59;;;;;;;3.77;3.47;;;19.50;72.60;;;;;;6232059;28;20231;-67
2021/04/12 09:25:18;;;;;;;4.90;3.60;;;19.70;69.50;;;;;;6237560;28;20235;-67
2021/04/12 09:28:38;;;;;;;3.93;3.17;;;20.00;67.70;;;;;;6256165;28;20234;-67
2021/04/12 09:32:04;;;;;;;3.13;2.83;;;20.10;69.10;;;;;;6255528;28;20288;-67
2021/04/12 09:35:25;;;;;;;3.93;3.60;;;20.10;69.00;;;;;;6232666;28;20701;-67
2021/04/12 09:38:39;;;;;;;4.17;3.40;;;19.90;65.90;;;;;;6231448;28;20228;-67
2021/04/12 09:42:21;;;;;;;3.23;2.93;;;19.70;67.30;;;;;;6230841;28;20236;-67
2021/04/12 09:45:55;;;;;;;3.23;2.90;;;19.90;67.60;;;;;;6209979;28;20232;-67
2021/04/12 09:49:21;;;;;;;3.50;3.20;;;20.10;67.60;;;;;;6230881;28;20322;-67
2021/04/12 09:52:54;;;;;;;2.90;2.70;;;20.40;66.50;;;;;;6231952;28;20243;-67
2021/04/12 09:56:38;;;;;;;3.67;2.70;;;20.80;66.50;;;;;;6230456;28;20228;-67
2021/04/12 09:59:58;;;;;;;4.43;3.30;;;21.40;61.70;;;;;;6228755;28;20235;-67
2021/04/12 10:03:47;;;;;;;5.13;3.73;;;20.90;58.80;;;;;;6204765;28;20742;-67
2021/04/12 10:07:14;;;;;;;4.63;3.63;;;20.60;59.40;;;;;;6233981;28;20602;-67
2021/04/12 10:10:46;;;;;;;3.03;2.73;;;20.40;61.50;;;;;;6234760;28;20243;-67
2021/04/12 10:14:30;;;;;;;4.30;3.17;;;20.60;61.90;;;;;;6235870;28;20378;-67
2021/04/12 10:17:39;;;;;;;3.50;3.20;;;20.80;60.00;;;;;;6213089;28;20323;-67
2021/04/12 10:20:49;;;;;;;4.43;4.03;;;20.80;59.90;;;;;;6193212;28;20359;-67
2021/04/12 10:24:06;;;;;;;4.77;3.43;;;21.10;58.50;;;;;;6209790;28;20315;-67
2021/04/12 10:27:26;;;;;;;3.50;3.20;;;21.20;59.60;;;;;;6230552;28;20247;-67
2021/04/12 10:30:42;;;;;;;3.53;3.23;;;21.20;58.20;;;;;;6215377;28;20239;-67
2021/04/12 10:34:22;;;;;;;5.37;4.70;;;21.10;58.50;;;;;;6232454;28;20294;-67
2021/04/12 10:37:49;;;;;;;4.20;3.80;;;21.00;58.20;;;;;;6232727;28;20240;-67
2021/04/12 10:41:23;;;;;;;5.63;4.00;;;20.60;59.50;;;;;;6231067;28;20248;-67
2021/04/12 10:45:13;;;;;;;3.77;3.47;;;20.70;59.20;;;;;;6233844;28;20252;-67
2021/04/12 10:48:26;;;;;;;3.77;3.47;;;21.30;60.10;;;;;;6208242;28;20236;-67
2021/04/12 10:51:33;;;;;;;4.57;4.13;;;21.70;58.50;;;;;;6259385;28;20318;-67
2021/04/12 10:54:50;;;;;;;4.97;4.40;;;21.80;58.00;;;;;;6257860;28;20304;-67
2021/04/12 10:58:14;;;;;;;4.27;3.83;;;21.60;57.40;;;;;;6235144;28;20255;-67
2021/04/12 11:01:42;;;;;;;4.87;4.47;;;21.30;57.30;;;;;;6234343;28;20322;-67
2021/04/12 11:04:43;;;;;;;4.53;4.13;;;21.00;58.30;;;;;;6224079;28;20228;-67
2021/04/12 11:07:53;;;;;;;5.43;4.93;;;20.90;58.50;;;;;;6235227;28;20717;-67
2021/04/12 11:11:29;;;;;;;5.00;4.50;;;20.40;58.10;;;;;;6233459;28;20239;-67
2021/04/12 11:14:43;;;;;;;5.47;4.67;;;20.10;59.70;;;;;;6233856;28;20327;-67
2021/04/12 11:18:00;;;;;;;4.30;3.90;;;19.90;60.40;;;;;;6233010;28;20596;-67
2021/04/12 11:21:14;;;;;;;5.03;4.53;;;19.60;60.50;;;;;;6234471;28;20593;-67
2021/04/12 11:24:42;;;;;;;5.93;4.93;;;19.70;61.00;;;;;;6235543;28;20204;-67
2021/04/12 11:28:10;;;;;;;5.77;5.20;;;19.30;60.00;;;;;;6232092;28;20239;-67
2021/04/12 11:31:46;;;;;;;6.10;5.50;;;18.70;62.00;;;;;;6239977;28;20240;-67
2021/04/12 11:34:58;;;;;;;5.63;5.13;;;18.40;63.20;;;;;;6233937;28;20286;-67
2021/04/12 11:38:17;;;;;;;6.03;5.53;;;18.20;64.90;;;;;;6232424;28;20224;-67
2021/04/12 11:41:31;;;;;;;5.87;5.37;;;18.10;65.40;;;;;;6233161;28;20261;-67
2021/04/12 11:45:00;;;;;;;6.33;5.70;;;18.00;67.00;;;;;;6235062;28;20228;-67
2021/04/12 11:48:08;;;;;;;6.33;5.60;;;17.90;67.30;;;;;;6231930;28;20322;-67
2021/04/12 11:51:48;;;;;;;6.53;5.93;;;17.70;68.20;;;;;;6233722;28;20219;-67
2021/04/12 11:55:05;;;;;;;6.50;5.63;;;17.50;69.00;;;;;;6236099;28;20254;-66
2021/04/12 11:58:21;;;;;;;6.20;5.60;;;17.40;69.90;;;;;;6257342;28;20597;-66
2021/04/12 12:01:25;;;;;;;8.10;6.80;;;17.10;70.50;;;;;;6258240;28;20231;-67
2021/04/12 12:04:52;;;;;;;4.90;4.50;;;16.70;71.70;;;;;;6257688;28;20638;-67
2021/04/12 12:07:58;;;;;;;5.03;4.63;;;16.50;73.80;;;;;;6257247;28;20247;-67
2021/04/12 12:11:08;;;;;;;5.10;4.70;;;16.60;74.20;;;;;;6256101;28;20227;-67
2021/04/12 12:14:32;;;;;;;4.97;4.57;;;16.60;75.70;;;;;;6257484;28;20314;-67
2021/04/12 12:18:02;;;;;;;5.80;5.30;;;16.50;75.30;;;;;;6256837;28;20223;-67
2021/04/12 12:21:18;;;;;;;6.03;5.53;;;16.30;75.50;;;;;;6257320;28;20309;-67
2021/04/12 12:24:45;;;;;;;5.80;5.30;;;16.00;76.30;;;;;;6256276;28;20281;-67
2021/04/12 12:28:20;;;;;;;5.97;5.47;;;15.80;77.70;;;;;;6232459;28;20232;-67
2021/04/12 12:31:36;;;;;;;8.50;5.77;;;15.60;79.20;;;;;;6231564;28;20309;-67
2021/04/12 12:34:50;;;;;;;5.93;5.43;;;15.40;80.20;;;;;;6256716;28;20235;-67
2021/04/12 12:38:11;;;;;;;6.17;5.57;;;15.30;81.60;;;;;;6257258;28;20239;-67
2021/04/12 12:41:23;;;;;;;5.83;5.33;;;15.10;82.90;;;;;;6255674;28;20257;-67
2021/04/12 12:44:29;;;;;;;6.20;5.60;;;15.00;84.60;;;;;;6256814;28;20223;-67
2021/04/12 12:47:33;;;;;;;5.70;5.20;;;14.70;86.50;;;;;;6256395;28;20234;-67
2021/04/12 12:50:59;;;;;;;7.17;5.80;;;14.60;88.80;;;;;;6255519;28;20720;-67
2021/04/12 12:54:27;;;;;;;6.37;5.77;;;14.30;90.50;;;;;;6255252;28;20235;-67
2021/04/12 12:57:36;;;;;;;7.00;6.23;;;14.10;92.00;;;;;;6233254;28;20306;-67
2021/04/12 13:00:42;;;;;;;5.90;5.37;;;13.80;93.70;;;;;;6231452;28;20376;-67
2021/04/12 13:03:44;;;;;;;6.17;5.43;;;13.60;95.10;;;;;;6232436;28;20344;-67
2021/04/12 13:06:51;;;;;;;5.77;5.27;;;13.40;95.90;;;;;;6232432;28;20243;-67
2021/04/12 13:10:02;;;;;;;5.63;5.13;;;13.00;96.80;;;;;;6231059;28;20225;-67
2021/04/12 13:13:36;;;;;;;5.70;5.20;;;12.70;97.00;;;;;;6231868;28;20226;-67
2021/04/12 13:16:39;;;;;;;4.40;4.00;;;12.30;97.90;;;;;;6231236;28;20224;-67
2021/04/12 13:19:45;;;;;;;4.50;3.77;;;11.80;99.30;;;;;;6231443;28;20723;-67
2021/04/12 13:22:59;;;;;;;3.17;2.87;;;11.60;99.90;;;;;;6232291;28;20701;-67
2021/04/12 13:26:18;;;;;;;3.00;2.80;;;11.30;99.90;;;;;;6244925;28;20223;-67
2021/04/12 13:29:21;;;;;;;3.00;2.70;;;11.00;99.90;;;;;;6258506;28;20235;-67
2021/04/12 13:32:38;;;;;;;2.43;2.13;;;10.80;99.90;;;;;;6254686;28;20321;-66
2021/04/12 13:35:43;;;;;;;2.20;2.03;;;10.50;99.90;;;;;;6257721;28;20316;-67
2021/04/12 13:38:49;;;;;;;2.37;1.87;;;10.20;99.90;;;;;;6254459;28;20318;-67
2021/04/12 13:41:53;;;;;;;2.70;1.10;;;10.20;99.90;;;;;;6255653;28;20235;-67
2021/04/12 13:45:14;;;;;;;1.20;1.10;;;10.00;99.90;;;;;;6256583;28;20682;-67
2021/04/12 13:48:27;;;;;;;1.03;0.77;;;9.70;99.90;;;;;;6255121;28;20322;-67
2021/04/12 13:51:46;;;;;;;0.70;0.67;;;9.40;99.90;;;;;;6253890;28;20237;-67
2021/04/12 13:55:09;;;;;;;2.87;0.50;;;9.10;99.90;;;;;;6250079;28;20242;-67
2021/04/12 13:58:16;;;;;;;0.40;0.40;;;8.90;99.90;;;;;;6229891;28;20232;-67
2021/04/12 14:01:44;;;;;;;0.60;0.60;;;8.70;99.90;;;;;;6229780;28;20704;-67
2021/04/12 14:04:57;;;;;;;0.60;0.60;;;8.50;99.90;;;;;;6231208;28;20606;-67
2021/04/12 14:08:20;;;;;;;0.43;0.40;;;8.50;99.90;;;;;;6229238;28;20258;-67
2021/04/12 14:11:42;;;;;;;0.33;0.33;;;8.20;99.90;;;;;;6231644;28;20231;-66
2021/04/12 14:15:07;;;;;;;0.93;0.40;;;8.00;99.90;;;;;;6229820;28;20223;-67
2021/04/12 14:18:12;;;;;;;0.43;0.33;;;8.00;99.90;;;;;;6230846;28;20313;-66
2021/04/12 14:21:17;;;;;;;0.40;0.40;;;7.70;99.90;;;;;;6229586;28;20226;-66
2021/04/12 14:24:29;;;;;;;0.30;0.23;;;7.50;99.90;;;;;;6230533;28;20201;-66
2021/04/12 14:27:33;;;;;;;0.20;0.20;;;7.30;99.90;;;;;;6229130;28;20228;-66
2021/04/12 14:31:07;;;;;;;0.70;0.20;;;7.10;99.90;;;;;;6230499;28;20228;-66
2021/04/12 14:34:17;;;;;;;0.40;0.40;;;7.00;99.90;;;;;;6232589;28;20602;-66
2021/04/12 14:37:41;;;;;;;0.30;0.30;;;6.80;99.90;;;;;;6251737;28;20243;-66
2021/04/12 14:40:53;;;;;;;0.43;0.43;;;6.60;99.90;;;;;;6231404;28;20246;-66
2021/04/12 14:44:09;;;;;;;0.57;0.40;;;6.40;99.90;;;;;;6246370;28;20288;-67
2021/04/12 14:47:25;;;;;;;0.93;0.40;;;6.40;99.90;;;;;;6228635;28;20232;-67
2021/04/12 14:50:28;;;;;;;0.43;0.43;;;6.50;99.90;;;;;;6231667;28;20316;-66
2021/04/12 14:53:53;;;;;;;0.80;0.40;;;6.40;99.90;;;;;;6230306;28;20240;-66
2021/04/12 14:57:17;;;;;;;0.77;0.40;;;6.30;99.90;;;;;;6254877;28;20233;-66
2021/04/12 15:00:23;;;;;;;0.23;0.23;;;6.20;99.90;;;;;;6256519;28;20710;-66
2021/04/12 15:03:29;;;;;;;0.40;0.40;;;6.10;99.90;;;;;;6259079;28;20221;-66
2021/04/12 15:06:31;;;;;;;0.10;0.10;;;5.90;99.90;;;;;;6259465;28;20316;-66
2021/04/12 15:10:19;;;;;;;0.30;0.30;;;5.80;99.90;;;;;;6258899;28;20234;-66
2021/04/12 15:13:42;;;;;;;0.30;0.30;;;5.70;99.90;;;;;;6246358;28;20233;-66
2021/04/12 15:16:56;;;;;;;0.50;0.50;;;5.70;99.90;;;;;;6215447;28;20306;-65
2021/04/12 15:20:00;;;;;;;0.30;0.30;;;5.60;99.90;;;;;;6230329;28;20354;-65
2021/04/12 15:23:31;;;;;;;2.00;0.40;;;5.50;99.90;;;;;;6256447;28;20744;-65
2021/04/12 15:26:49;;;;;;;0.40;0.40;;;5.50;99.90;;;;;;6257270;28;20237;-65
2021/04/12 15:30:00;;;;;;;0.40;0.40;;;5.30;99.90;;;;;;6238168;28;20235;-65
2021/04/12 15:33:06;;;;;;;0.50;0.30;;;5.20;99.90;;;;;;6256218;28;20277;-65
2021/04/12 15:36:36;;;;;;;0.30;0.30;;;5.20;99.90;;;;;;6239182;28;20209;-65
2021/04/12 15:39:39;;;;;;;0.40;0.40;;;5.20;99.90;;;;;;6255772;28;20371;-65
2021/04/12 15:42:46;;;;;;;0.40;0.40;;;5.20;99.90;;;;;;6256149;28;20629;-65
2021/04/12 15:46:29;;;;;;;0.80;0.60;;;5.20;99.90;;;;;;6256852;28;20600;-65
2021/04/12 15:49:35;;;;;;;1.80;0.40;;;5.10;99.90;;;;;;6261168;28;20327;-65
2021/04/12 15:52:49;;;;;;;0.53;0.53;;;5.00;99.90;;;;;;6258722;28;20230;-66
2021/04/12 15:56:03;;;;;;;0.77;0.60;;;5.00;99.90;;;;;;6250111;28;20237;-66
2021/04/12 15:59:20;;;;;;;0.50;0.50;;;4.90;99.90;;;;;;6252444;28;20258;-66
2021/04/12 16:02:28;;;;;;;0.30;0.30;;;4.90;99.90;;;;;;6250241;28;20239;-66
2021/04/12 16:06:04;;;;;;;0.50;0.50;;;4.80;99.90;;;;;;6258540;28;20351;-66
2021/04/12 16:09:26;;;;;;;0.40;0.40;;;4.70;99.90;;;;;;6257214;28;20267;-66
2021/04/12 16:12:32;;;;;;;0.50;0.50;;;4.70;99.90;;;;;;6258940;28;20219;-66
2021/04/12 16:15:39;;;;;;;1.43;0.67;;;4.60;99.90;;;;;;6258320;28;20223;-66
2021/04/12 16:19:06;;;;;;;0.53;0.50;;;4.60;99.90;;;;;;6261285;28;20232;-66
2021/04/12 16:22:20;;;;;;;0.50;0.50;;;4.60;99.90;;;;;;6256947;28;20297;-66
2021/04/12 16:25:29;;;;;;;0.53;0.50;;;4.60;99.90;;;;;;6258097;28;20281;-65
2021/04/12 16:28:53;;;;;;;1.07;0.60;;;4.50;99.90;;;;;;6255849;28;20329;-66
2021/04/12 16:32:20;;;;;;;0.50;0.50;;;4.50;99.90;;;;;;6262109;28;20231;-66
2021/04/12 16:35:27;;;;;;;0.70;0.70;;;4.40;99.90;;;;;;6256989;28;20229;-66
2021/04/12 16:38:29;;;;;;;1.07;0.93;;;4.40;99.90;;;;;;6255782;28;20231;-66
2021/04/12 16:41:38;;;;;;;1.20;1.10;;;4.40;99.90;;;;;;6257256;28;20223;-66
2021/04/12 16:44:48;;;;;;;0.93;0.93;;;4.40;99.90;;;;;;6255138;28;20225;-66
2021/04/12 16:48:05;;;;;;;0.97;0.90;;;4.30;99.90;;;;;;6257367;28;20239;-66
2021/04/12 16:51:17;;;;;;;1.03;0.97;;;4.30;99.90;;;;;;6231738;28;20212;-66
2021/04/12 16:54:23;;;;;;;0.87;0.70;;;4.30;99.90;;;;;;6231216;28;20212;-65
2021/04/12 16:57:44;;;;;;;0.87;0.87;;;4.20;99.90;;;;;;6223783;28;20248;-66
2021/04/12 17:00:56;;;;;;;1.07;0.90;;;4.20;99.90;;;;;;6229623;28;20236;-65
2021/04/12 17:04:14;;;;;;;0.60;0.60;;;4.20;99.90;;;;;;6232989;28;20225;-65
2021/04/12 17:07:40;;;;;;;1.20;1.10;;;4.20;99.90;;;;;;6231017;28;20239;-65
2021/04/12 17:11:00;;;;;;;1.10;1.00;;;4.20;99.90;;;;;;6230793;28;20596;-66
2021/04/12 17:14:20;;;;;;;1.20;1.10;;;4.20;99.90;;;;;;6231063;28;20227;-66
2021/04/12 17:17:45;;;;;;;0.90;0.90;;;4.20;99.90;;;;;;6231867;28;20251;-66
2021/04/12 17:20:57;;;;;;;0.90;0.90;;;4.10;99.90;;;;;;6232271;28;20643;-66
2021/04/12 17:24:18;;;;;;;1.10;1.00;;;4.10;99.90;;;;;;6232796;28;20224;-66
2021/04/12 17:27:38;;;;;;;1.03;0.90;;;4.10;99.90;;;;;;6232510;28;20332;-66
2021/04/12 17:30:46;;;;;;;1.93;1.30;;;4.10;99.90;;;;;;6231916;28;20298;-66
2021/04/12 17:34:02;;;;;;;1.10;0.87;;;4.10;99.90;;;;;;6230472;28;20233;-66
2021/04/12 17:37:19;;;;;;;1.33;1.10;;;4.10;99.90;;;;;;6229403;28;20568;-66
2021/04/12 17:40:29;;;;;;;1.50;1.20;;;4.10;99.90;;;;;;6229954;28;20647;-66
2021/04/12 17:43:36;;;;;;;1.17;1.07;;;4.00;99.90;;;;;;6232943;28;20247;-65